sensor_id;sensor_type;location;lat;lon;timestamp;temperature;humidity
18361;SHT31;9308;48.550;9.108;2023-03-01T00:01:25;0.30;66.36
18361;SHT31;9308;48.550;9.108;2023-03-01T00:03:52;0.38;66.26
18361;SHT31;9308;48.550;9.108;2023-03-01T00:06:19;0.45;65.95
18361;SHT31;9308;48.550;9.108;2023-03-01T00:08:45;0.30;66.57
18361;SHT31;9308;48.550;9.108;2023-03-01T00:11:23;0.36;66.12
18361;SHT31;9308;48.550;9.108;2023-03-01T00:13:52;0.27;66.52
18361;SHT31;9308;48.550;9.108;2023-03-01T00:16:20;0.07;67.14
18361;SHT31;9308;48.550;9.108;2023-03-01T00:18:46;0.12;67.15
18361;SHT31;9308;48.550;9.108;2023-03-01T00:21:12;0.13;66.78
18361;SHT31;9308;48.550;9.108;2023-03-01T00:23:38;0.27;66.86
18361;SHT31;9308;48.550;9.108;2023-03-01T00:26:09;0.34;66.41
18361;SHT31;9308;48.550;9.108;2023-03-01T00:28:35;0.29;66.59
18361;SHT31;9308;48.550;9.108;2023-03-01T00:31:09;0.16;66.85
18361;SHT31;9308;48.550;9.108;2023-03-01T00:33:34;0.23;67.07
18361;SHT31;9308;48.550;9.108;2023-03-01T00:36:00;0.23;66.56
18361;SHT31;9308;48.550;9.108;2023-03-01T00:38:26;0.31;66.39
18361;SHT31;9308;48.550;9.108;2023-03-01T00:40:51;0.24;66.76
18361;SHT31;9308;48.550;9.108;2023-03-01T00:43:17;0.19;67.23
18361;SHT31;9308;48.550;9.108;2023-03-01T00:45:42;0.14;67.09
18361;SHT31;9308;48.550;9.108;2023-03-01T00:48:08;0.07;67.25
18361;SHT31;9308;48.550;9.108;2023-03-01T00:50:33;0.14;67.16
18361;SHT31;9308;48.550;9.108;2023-03-01T00:52:59;0.04;67.42
18361;SHT31;9308;48.550;9.108;2023-03-01T00:55:25;0.20;66.92
18361;SHT31;9308;48.550;9.108;2023-03-01T00:57:50;0.16;67.16
18361;SHT31;9308;48.550;9.108;2023-03-01T01:00:16;0.13;67.41
18361;SHT31;9308;48.550;9.108;2023-03-01T01:02:42;0.16;67.33
18361;SHT31;9308;48.550;9.108;2023-03-01T01:05:07;0.27;66.51
18361;SHT31;9308;48.550;9.108;2023-03-01T01:07:33;0.19;66.98
18361;SHT31;9308;48.550;9.108;2023-03-01T01:09:59;0.17;66.99
18361;SHT31;9308;48.550;9.108;2023-03-01T01:12:24;0.07;67.30
18361;SHT31;9308;48.550;9.108;2023-03-01T01:14:50;0.07;67.52
18361;SHT31;9308;48.550;9.108;2023-03-01T01:17:15;0.17;67.26
18361;SHT31;9308;48.550;9.108;2023-03-01T01:19:40;0.20;66.79
18361;SHT31;9308;48.550;9.108;2023-03-01T01:22:06;0.07;67.37
18361;SHT31;9308;48.550;9.108;2023-03-01T01:24:32;0.04;67.42
18361;SHT31;9308;48.550;9.108;2023-03-01T01:26:57;0.12;67.63
18361;SHT31;9308;48.550;9.108;2023-03-01T01:29:23;0.13;67.51
18361;SHT31;9308;48.550;9.108;2023-03-01T01:31:48;-0.11;68.05
18361;SHT31;9308;48.550;9.108;2023-03-01T01:34:16;0.14;67.53
18361;SHT31;9308;48.550;9.108;2023-03-01T01:36:42;-0.01;67.49
18361;SHT31;9308;48.550;9.108;2023-03-01T01:39:08;-0.01;67.75
18361;SHT31;9308;48.550;9.108;2023-03-01T01:41:39;0.12;67.57
18361;SHT31;9308;48.550;9.108;2023-03-01T01:44:21;0.03;67.67
18361;SHT31;9308;48.550;9.108;2023-03-01T01:51:53;0.12;67.32
18361;SHT31;9308;48.550;9.108;2023-03-01T01:54:28;0.16;67.52
18361;SHT31;9308;48.550;9.108;2023-03-01T01:57:01;0.16;68.01
18361;SHT31;9308;48.550;9.108;2023-03-01T01:59:28;0.02;68.05
18361;SHT31;9308;48.550;9.108;2023-03-01T02:01:57;0.03;68.55
18361;SHT31;9308;48.550;9.108;2023-03-01T02:04:24;0.20;67.96
18361;SHT31;9308;48.550;9.108;2023-03-01T02:07:23;0.36;67.46
18361;SHT31;9308;48.550;9.108;2023-03-01T02:09:50;0.30;67.82
18361;SHT31;9308;48.550;9.108;2023-03-01T02:12:20;0.48;67.32
18361;SHT31;9308;48.550;9.108;2023-03-01T02:14:46;0.55;66.80
18361;SHT31;9308;48.550;9.108;2023-03-01T02:17:12;0.48;66.95
18361;SHT31;9308;48.550;9.108;2023-03-01T02:19:52;0.71;66.56
18361;SHT31;9308;48.550;9.108;2023-03-01T02:22:24;0.83;66.02
18361;SHT31;9308;48.550;9.108;2023-03-01T02:25:04;0.89;65.97
18361;SHT31;9308;48.550;9.108;2023-03-01T02:30:18;0.88;66.12
18361;SHT31;9308;48.550;9.108;2023-03-01T02:32:44;0.83;66.31
18361;SHT31;9308;48.550;9.108;2023-03-01T02:35:12;0.58;66.77
18361;SHT31;9308;48.550;9.108;2023-03-01T02:37:39;0.51;67.51
18361;SHT31;9308;48.550;9.108;2023-03-01T02:40:08;0.50;67.55
18361;SHT31;9308;48.550;9.108;2023-03-01T02:42:45;0.61;67.31
18361;SHT31;9308;48.550;9.108;2023-03-01T02:45:12;0.66;66.90
18361;SHT31;9308;48.550;9.108;2023-03-01T02:47:37;0.55;67.28
18361;SHT31;9308;48.550;9.108;2023-03-01T02:50:22;0.99;66.39
18361;SHT31;9308;48.550;9.108;2023-03-01T02:53:04;0.71;67.05
18361;SHT31;9308;48.550;9.108;2023-03-01T02:55:32;0.82;66.69
18361;SHT31;9308;48.550;9.108;2023-03-01T02:57:59;0.88;66.27
18361;SHT31;9308;48.550;9.108;2023-03-01T03:00:36;0.92;66.79
18361;SHT31;9308;48.550;9.108;2023-03-01T03:03:05;0.95;66.53
18361;SHT31;9308;48.550;9.108;2023-03-01T03:05:31;0.99;66.22
18361;SHT31;9308;48.550;9.108;2023-03-01T03:07:59;0.64;66.74
18361;SHT31;9308;48.550;9.108;2023-03-01T03:10:27;0.61;67.08
18361;SHT31;9308;48.550;9.108;2023-03-01T03:12:55;0.65;67.12
18361;SHT31;9308;48.550;9.108;2023-03-01T03:15:22;0.75;66.88
18361;SHT31;9308;48.550;9.108;2023-03-01T03:17:48;0.82;66.54
18361;SHT31;9308;48.550;9.108;2023-03-01T03:20:16;0.90;66.33
18361;SHT31;9308;48.550;9.108;2023-03-01T03:22:52;0.93;66.18
18361;SHT31;9308;48.550;9.108;2023-03-01T03:25:18;0.71;67.22
18361;SHT31;9308;48.550;9.108;2023-03-01T03:27:46;0.61;67.41
18361;SHT31;9308;48.550;9.108;2023-03-01T03:30:16;0.68;67.40
18361;SHT31;9308;48.550;9.108;2023-03-01T03:32:44;0.64;67.26
18361;SHT31;9308;48.550;9.108;2023-03-01T03:35:19;0.69;67.63
18361;SHT31;9308;48.550;9.108;2023-03-01T03:37:44;0.80;67.11
18361;SHT31;9308;48.550;9.108;2023-03-01T03:40:30;0.78;67.07
18361;SHT31;9308;48.550;9.108;2023-03-01T03:42:55;0.85;67.10
18361;SHT31;9308;48.550;9.108;2023-03-01T03:45:21;0.79;67.30
18361;SHT31;9308;48.550;9.108;2023-03-01T03:47:46;0.75;67.01
18361;SHT31;9308;48.550;9.108;2023-03-01T03:50:13;0.83;66.59
18361;SHT31;9308;48.550;9.108;2023-03-01T03:52:40;0.69;67.34
18361;SHT31;9308;48.550;9.108;2023-03-01T03:55:07;0.68;67.46
18361;SHT31;9308;48.550;9.108;2023-03-01T03:57:42;0.54;67.55
18361;SHT31;9308;48.550;9.108;2023-03-01T04:00:11;0.52;67.70
18361;SHT31;9308;48.550;9.108;2023-03-01T04:02:41;0.88;66.80
18361;SHT31;9308;48.550;9.108;2023-03-01T04:05:07;0.92;66.27
18361;SHT31;9308;48.550;9.108;2023-03-01T04:07:37;0.95;66.58
18361;SHT31;9308;48.550;9.108;2023-03-01T04:10:05;1.00;66.38
18361;SHT31;9308;48.550;9.108;2023-03-01T04:12:33;0.69;66.93
18361;SHT31;9308;48.550;9.108;2023-03-01T04:15:08;0.97;66.56
18361;SHT31;9308;48.550;9.108;2023-03-01T04:17:41;0.78;66.89
18361;SHT31;9308;48.550;9.108;2023-03-01T04:20:12;0.76;67.64
18361;SHT31;9308;48.550;9.108;2023-03-01T04:22:39;1.15;66.44
18361;SHT31;9308;48.550;9.108;2023-03-01T04:25:05;0.93;66.52
18361;SHT31;9308;48.550;9.108;2023-03-01T04:27:35;0.78;66.86
18361;SHT31;9308;48.550;9.108;2023-03-01T04:30:01;0.80;66.88
18361;SHT31;9308;48.550;9.108;2023-03-01T04:32:27;0.76;67.20
18361;SHT31;9308;48.550;9.108;2023-03-01T04:34:52;0.89;66.96
18361;SHT31;9308;48.550;9.108;2023-03-01T04:37:18;0.61;67.44
18361;SHT31;9308;48.550;9.108;2023-03-01T04:39:43;0.71;67.66
18361;SHT31;9308;48.550;9.108;2023-03-01T04:42:12;0.83;67.14
18361;SHT31;9308;48.550;9.108;2023-03-01T04:44:37;0.79;67.39
18361;SHT31;9308;48.550;9.108;2023-03-01T04:47:03;0.82;67.16
18361;SHT31;9308;48.550;9.108;2023-03-01T04:49:28;0.68;67.46
18361;SHT31;9308;48.550;9.108;2023-03-01T04:51:54;0.97;67.18
18361;SHT31;9308;48.550;9.108;2023-03-01T04:54:20;0.90;66.97
18361;SHT31;9308;48.550;9.108;2023-03-01T04:56:45;1.11;66.09
18361;SHT31;9308;48.550;9.108;2023-03-01T04:59:11;1.16;66.08
18361;SHT31;9308;48.550;9.108;2023-03-01T05:01:37;0.95;66.89
18361;SHT31;9308;48.550;9.108;2023-03-01T05:04:03;0.99;66.66
18361;SHT31;9308;48.550;9.108;2023-03-01T05:06:31;1.07;66.28
18361;SHT31;9308;48.550;9.108;2023-03-01T05:08:56;0.90;66.93
18361;SHT31;9308;48.550;9.108;2023-03-01T05:11:22;1.22;66.44
18361;SHT31;9308;48.550;9.108;2023-03-01T05:13:47;1.06;66.66
18361;SHT31;9308;48.550;9.108;2023-03-01T05:16:15;1.17;66.16
18361;SHT31;9308;48.550;9.108;2023-03-01T05:18:42;1.13;66.06
18361;SHT31;9308;48.550;9.108;2023-03-01T05:21:11;1.09;66.57
18361;SHT31;9308;48.550;9.108;2023-03-01T05:23:37;1.23;66.13
18361;SHT31;9308;48.550;9.108;2023-03-01T05:26:04;1.35;65.77
18361;SHT31;9308;48.550;9.108;2023-03-01T05:28:31;1.43;65.83
18361;SHT31;9308;48.550;9.108;2023-03-01T05:30:57;1.27;66.17
18361;SHT31;9308;48.550;9.108;2023-03-01T05:33:23;1.43;65.61
18361;SHT31;9308;48.550;9.108;2023-03-01T05:35:50;1.38;65.67
18361;SHT31;9308;48.550;9.108;2023-03-01T05:38:17;1.52;65.29
18361;SHT31;9308;48.550;9.108;2023-03-01T05:40:46;1.37;65.65
18361;SHT31;9308;48.550;9.108;2023-03-01T05:43:12;1.35;65.69
18361;SHT31;9308;48.550;9.108;2023-03-01T05:45:39;1.16;65.60
18361;SHT31;9308;48.550;9.108;2023-03-01T05:48:06;1.13;66.26
18361;SHT31;9308;48.550;9.108;2023-03-01T05:50:37;1.10;66.52
18361;SHT31;9308;48.550;9.108;2023-03-01T05:53:06;1.10;66.65
18361;SHT31;9308;48.550;9.108;2023-03-01T05:55:34;1.01;66.99
18361;SHT31;9308;48.550;9.108;2023-03-01T05:58:04;0.68;67.62
18361;SHT31;9308;48.550;9.108;2023-03-01T06:00:30;0.76;67.77
18361;SHT31;9308;48.550;9.108;2023-03-01T06:02:57;1.07;67.03
18361;SHT31;9308;48.550;9.108;2023-03-01T06:05:23;0.92;67.04
18361;SHT31;9308;48.550;9.108;2023-03-01T06:07:49;0.90;67.23
18361;SHT31;9308;48.550;9.108;2023-03-01T06:10:16;0.96;67.12
18361;SHT31;9308;48.550;9.108;2023-03-01T06:12:42;0.88;67.11
18361;SHT31;9308;48.550;9.108;2023-03-01T06:15:11;1.15;66.67
18361;SHT31;9308;48.550;9.108;2023-03-01T06:17:38;1.11;66.36
18361;SHT31;9308;48.550;9.108;2023-03-01T06:20:10;1.15;66.68
18361;SHT31;9308;48.550;9.108;2023-03-01T06:22:36;1.24;66.34
18361;SHT31;9308;48.550;9.108;2023-03-01T06:25:01;1.13;66.50
18361;SHT31;9308;48.550;9.108;2023-03-01T06:27:27;1.19;66.27
18361;SHT31;9308;48.550;9.108;2023-03-01T06:29:52;1.33;66.13
18361;SHT31;9308;48.550;9.108;2023-03-01T06:32:18;1.52;65.76
18361;SHT31;9308;48.550;9.108;2023-03-01T06:34:43;1.38;65.43
18361;SHT31;9308;48.550;9.108;2023-03-01T06:37:09;1.22;66.09
18361;SHT31;9308;48.550;9.108;2023-03-01T06:39:35;1.19;66.60
18361;SHT31;9308;48.550;9.108;2023-03-01T06:42:00;1.13;66.35
18361;SHT31;9308;48.550;9.108;2023-03-01T06:44:26;1.17;66.22
18361;SHT31;9308;48.550;9.108;2023-03-01T06:46:52;1.11;66.94
18361;SHT31;9308;48.550;9.108;2023-03-01T06:49:17;1.16;66.64
18361;SHT31;9308;48.550;9.108;2023-03-01T06:51:44;1.30;66.09
18361;SHT31;9308;48.550;9.108;2023-03-01T06:54:10;1.35;65.88
18361;SHT31;9308;48.550;9.108;2023-03-01T06:56:35;1.41;65.83
18361;SHT31;9308;48.550;9.108;2023-03-01T06:59:01;1.35;65.88
18361;SHT31;9308;48.550;9.108;2023-03-01T07:01:28;1.59;65.20
18361;SHT31;9308;48.550;9.108;2023-03-01T07:03:54;1.56;64.79
18361;SHT31;9308;48.550;9.108;2023-03-01T07:06:19;1.43;65.40
18361;SHT31;9308;48.550;9.108;2023-03-01T07:08:45;1.03;66.35
18361;SHT31;9308;48.550;9.108;2023-03-01T07:11:10;1.23;66.43
18361;SHT31;9308;48.550;9.108;2023-03-01T07:13:36;1.27;66.11
18361;SHT31;9308;48.550;9.108;2023-03-01T07:16:01;1.31;66.10
18361;SHT31;9308;48.550;9.108;2023-03-01T07:18:27;1.44;65.61
18361;SHT31;9308;48.550;9.108;2023-03-01T07:20:52;1.34;66.40
18361;SHT31;9308;48.550;9.108;2023-03-01T07:23:18;1.33;66.33
18361;SHT31;9308;48.550;9.108;2023-03-01T07:25:43;1.24;66.64
18361;SHT31;9308;48.550;9.108;2023-03-01T07:28:09;1.41;66.03
18361;SHT31;9308;48.550;9.108;2023-03-01T07:30:34;1.64;65.30
18361;SHT31;9308;48.550;9.108;2023-03-01T07:32:59;1.62;64.94
18361;SHT31;9308;48.550;9.108;2023-03-01T07:35:26;1.68;65.55
18361;SHT31;9308;48.550;9.108;2023-03-01T07:37:52;1.78;64.95
18361;SHT31;9308;48.550;9.108;2023-03-01T07:40:18;1.85;65.07
18361;SHT31;9308;48.550;9.108;2023-03-01T07:42:44;1.83;64.95
18361;SHT31;9308;48.550;9.108;2023-03-01T07:45:10;1.56;65.42
18361;SHT31;9308;48.550;9.108;2023-03-01T07:47:36;1.83;65.43
18361;SHT31;9308;48.550;9.108;2023-03-01T07:50:02;1.71;65.00
18361;SHT31;9308;48.550;9.108;2023-03-01T07:52:29;1.97;64.75
18361;SHT31;9308;48.550;9.108;2023-03-01T07:54:54;1.90;64.66
18361;SHT31;9308;48.550;9.108;2023-03-01T07:57:20;1.85;64.23
18361;SHT31;9308;48.550;9.108;2023-03-01T07:59:45;1.93;64.76
18361;SHT31;9308;48.550;9.108;2023-03-01T08:02:11;2.29;63.93
18361;SHT31;9308;48.550;9.108;2023-03-01T08:04:36;2.44;63.54
18361;SHT31;9308;48.550;9.108;2023-03-01T08:07:04;2.38;63.09
18361;SHT31;9308;48.550;9.108;2023-03-01T08:09:30;2.00;64.53
18361;SHT31;9308;48.550;9.108;2023-03-01T08:11:56;2.31;64.28
18361;SHT31;9308;48.550;9.108;2023-03-01T08:14:22;2.68;62.81
18361;SHT31;9308;48.550;9.108;2023-03-01T08:16:50;2.85;62.27
18361;SHT31;9308;48.550;9.108;2023-03-01T08:19:16;2.66;62.19
18361;SHT31;9308;48.550;9.108;2023-03-01T08:21:42;2.49;63.23
18361;SHT31;9308;48.550;9.108;2023-03-01T08:24:08;2.80;62.74
18361;SHT31;9308;48.550;9.108;2023-03-01T08:26:35;3.13;62.00
18361;SHT31;9308;48.550;9.108;2023-03-01T08:29:01;3.18;61.28
18361;SHT31;9308;48.550;9.108;2023-03-01T08:31:31;3.21;62.04
18361;SHT31;9308;48.550;9.108;2023-03-01T08:33:59;3.38;60.93
18361;SHT31;9308;48.550;9.108;2023-03-01T08:36:30;3.07;61.20
18361;SHT31;9308;48.550;9.108;2023-03-01T08:38:56;2.96;61.87
18361;SHT31;9308;48.550;9.108;2023-03-01T08:41:22;3.43;60.55
18361;SHT31;9308;48.550;9.108;2023-03-01T08:43:48;3.25;60.94
18361;SHT31;9308;48.550;9.108;2023-03-01T08:46:14;3.37;60.43
18361;SHT31;9308;48.550;9.108;2023-03-01T08:48:39;3.25;60.35
18361;SHT31;9308;48.550;9.108;2023-03-01T08:51:10;3.37;60.25
18361;SHT31;9308;48.550;9.108;2023-03-01T08:53:36;3.78;60.13
18361;SHT31;9308;48.550;9.108;2023-03-01T08:56:01;3.62;59.97
18361;SHT31;9308;48.550;9.108;2023-03-01T08:58:30;3.97;58.75
18361;SHT31;9308;48.550;9.108;2023-03-01T09:00:55;3.86;59.73
18361;SHT31;9308;48.550;9.108;2023-03-01T09:03:22;4.07;58.86
18361;SHT31;9308;48.550;9.108;2023-03-01T09:05:49;4.21;58.81
18361;SHT31;9308;48.550;9.108;2023-03-01T09:08:16;4.52;57.71
18361;SHT31;9308;48.550;9.108;2023-03-01T09:10:42;4.85;56.91
18361;SHT31;9308;48.550;9.108;2023-03-01T09:13:08;4.55;57.01
18361;SHT31;9308;48.550;9.108;2023-03-01T09:15:33;4.39;57.70
18361;SHT31;9308;48.550;9.108;2023-03-01T09:17:59;4.77;56.85
18361;SHT31;9308;48.550;9.108;2023-03-01T09:20:24;4.37;55.69
18361;SHT31;9308;48.550;9.108;2023-03-01T09:22:50;4.65;56.70
18361;SHT31;9308;48.550;9.108;2023-03-01T09:25:15;4.89;55.58
18361;SHT31;9308;48.550;9.108;2023-03-01T09:27:41;4.42;55.77
18361;SHT31;9308;48.550;9.108;2023-03-01T09:30:07;4.32;57.18
18361;SHT31;9308;48.550;9.108;2023-03-01T09:32:33;4.92;56.65
18361;SHT31;9308;48.550;9.108;2023-03-01T09:34:58;4.87;55.30
18361;SHT31;9308;48.550;9.108;2023-03-01T09:37:29;5.07;55.72
18361;SHT31;9308;48.550;9.108;2023-03-01T09:39:55;4.76;55.70
18361;SHT31;9308;48.550;9.108;2023-03-01T09:42:20;5.36;54.38
18361;SHT31;9308;48.550;9.108;2023-03-01T09:44:59;5.03;54.46
18361;SHT31;9308;48.550;9.108;2023-03-01T09:47:28;5.36;53.86
18361;SHT31;9308;48.550;9.108;2023-03-01T09:50:15;5.49;54.29
18361;SHT31;9308;48.550;9.108;2023-03-01T09:53:09;5.83;53.38
18361;SHT31;9308;48.550;9.108;2023-03-01T09:55:52;5.96;52.97
18361;SHT31;9308;48.550;9.108;2023-03-01T10:01:25;6.32;50.87
18361;SHT31;9308;48.550;9.108;2023-03-01T10:04:04;6.77;51.07
18361;SHT31;9308;48.550;9.108;2023-03-01T10:06:33;6.60;51.18
18361;SHT31;9308;48.550;9.108;2023-03-01T10:09:03;5.93;52.39
18361;SHT31;9308;48.550;9.108;2023-03-01T10:11:37;6.34;51.48
18361;SHT31;9308;48.550;9.108;2023-03-01T10:14:07;6.71;51.47
18361;SHT31;9308;48.550;9.108;2023-03-01T10:16:57;7.31;49.82
18361;SHT31;9308;48.550;9.108;2023-03-01T10:19:30;7.20;49.23
18361;SHT31;9308;48.550;9.108;2023-03-01T10:22:03;7.13;49.79
18361;SHT31;9308;48.550;9.108;2023-03-01T10:24:32;6.99;50.10
18361;SHT31;9308;48.550;9.108;2023-03-01T10:27:12;7.49;49.03
18361;SHT31;9308;48.550;9.108;2023-03-01T10:30:10;7.46;49.78
18361;SHT31;9308;48.550;9.108;2023-03-01T10:32:38;7.32;49.79
18361;SHT31;9308;48.550;9.108;2023-03-01T10:38:04;7.05;50.39
18361;SHT31;9308;48.550;9.108;2023-03-01T10:40:32;6.94;49.40
18361;SHT31;9308;48.550;9.108;2023-03-01T10:43:00;7.61;48.90
18361;SHT31;9308;48.550;9.108;2023-03-01T10:48:26;8.22;47.63
18361;SHT31;9308;48.550;9.108;2023-03-01T10:53:29;8.22;47.98
18361;SHT31;9308;48.550;9.108;2023-03-01T10:58:30;8.86;45.93
18361;SHT31;9308;48.550;9.108;2023-03-01T11:01:04;8.92;45.49
18361;SHT31;9308;48.550;9.108;2023-03-01T11:03:38;9.45;45.35
18361;SHT31;9308;48.550;9.108;2023-03-01T11:08:40;9.46;44.45
18361;SHT31;9308;48.550;9.108;2023-03-01T11:13:34;9.56;45.55
18361;SHT31;9308;48.550;9.108;2023-03-01T11:16:12;10.17;43.62
18361;SHT31;9308;48.550;9.108;2023-03-01T11:18:37;9.96;44.03
18361;SHT31;9308;48.550;9.108;2023-03-01T11:21:03;10.11;42.86
18361;SHT31;9308;48.550;9.108;2023-03-01T11:23:30;9.76;43.10
18361;SHT31;9308;48.550;9.108;2023-03-01T11:25:59;10.15;43.10
18361;SHT31;9308;48.550;9.108;2023-03-01T11:28:27;10.45;41.96
18361;SHT31;9308;48.550;9.108;2023-03-01T11:31:10;10.82;42.27
18361;SHT31;9308;48.550;9.108;2023-03-01T11:38:49;11.11;40.42
18361;SHT31;9308;48.550;9.108;2023-03-01T11:41:24;11.59;39.92
18361;SHT31;9308;48.550;9.108;2023-03-01T11:47:06;12.08;38.24
18361;SHT31;9308;48.550;9.108;2023-03-01T11:55:36;21.72;25.85
18361;SHT31;9308;48.550;9.108;2023-03-01T11:58:18;26.65;20.55
18361;SHT31;9308;48.550;9.108;2023-03-01T12:01:17;25.36;20.04
18361;SHT31;9308;48.550;9.108;2023-03-01T12:04:15;29.20;17.52
18361;SHT31;9308;48.550;9.108;2023-03-01T12:06:57;30.40;16.27
18361;SHT31;9308;48.550;9.108;2023-03-01T12:15:18;31.12;16.58
18361;SHT31;9308;48.550;9.108;2023-03-01T12:23:51;34.21;14.39
18361;SHT31;9308;48.550;9.108;2023-03-01T12:26:27;32.30;15.23
18361;SHT31;9308;48.550;9.108;2023-03-01T12:31:58;32.48;15.09
18361;SHT31;9308;48.550;9.108;2023-03-01T12:37:25;31.39;15.33
18361;SHT31;9308;48.550;9.108;2023-03-01T12:42:48;32.01;15.15
18361;SHT31;9308;48.550;9.108;2023-03-01T12:45:34;30.57;15.84
18361;SHT31;9308;48.550;9.108;2023-03-01T12:48:24;29.24;16.06
18361;SHT31;9308;48.550;9.108;2023-03-01T12:50:52;28.75;17.37
18361;SHT31;9308;48.550;9.108;2023-03-01T12:53:27;27.45;18.16
18361;SHT31;9308;48.550;9.108;2023-03-01T12:56:04;26.79;19.22
18361;SHT31;9308;48.550;9.108;2023-03-01T13:04:08;20.88;24.14
18361;SHT31;9308;48.550;9.108;2023-03-01T13:11:43;20.17;25.87
18361;SHT31;9308;48.550;9.108;2023-03-01T13:16:53;18.41;26.63
18361;SHT31;9308;48.550;9.108;2023-03-01T13:19:21;14.75;32.40
18361;SHT31;9308;48.550;9.108;2023-03-01T13:21:50;14.37;33.18
18361;SHT31;9308;48.550;9.108;2023-03-01T13:29:47;12.34;37.18
18361;SHT31;9308;48.550;9.108;2023-03-01T13:32:35;11.56;38.57
18361;SHT31;9308;48.550;9.108;2023-03-01T13:37:51;11.11;39.12
18361;SHT31;9308;48.550;9.108;2023-03-01T13:42:45;10.53;40.52
18361;SHT31;9308;48.550;9.108;2023-03-01T13:47:56;10.07;41.58
18361;SHT31;9308;48.550;9.108;2023-03-01T13:50:25;10.24;41.72
18361;SHT31;9308;48.550;9.108;2023-03-01T13:52:56;9.85;42.30
18361;SHT31;9308;48.550;9.108;2023-03-01T13:58:25;9.48;43.55
18361;SHT31;9308;48.550;9.108;2023-03-01T14:01:02;9.70;42.77
18361;SHT31;9308;48.550;9.108;2023-03-01T14:03:30;9.97;42.76
18361;SHT31;9308;48.550;9.108;2023-03-01T14:06:08;9.56;43.09
18361;SHT31;9308;48.550;9.108;2023-03-01T14:08:36;9.56;43.63
18361;SHT31;9308;48.550;9.108;2023-03-01T14:17:02;9.55;43.64
18361;SHT31;9308;48.550;9.108;2023-03-01T14:19:31;9.15;44.73
18361;SHT31;9308;48.550;9.108;2023-03-01T14:24:30;8.94;44.94
18361;SHT31;9308;48.550;9.108;2023-03-01T14:27:00;9.32;44.44
18361;SHT31;9308;48.550;9.108;2023-03-01T14:29:37;9.17;44.28
18361;SHT31;9308;48.550;9.108;2023-03-01T14:32:21;8.94;45.27
18361;SHT31;9308;48.550;9.108;2023-03-01T14:34:48;8.89;45.68
18361;SHT31;9308;48.550;9.108;2023-03-01T14:37:20;9.25;45.02
18361;SHT31;9308;48.550;9.108;2023-03-01T14:39:46;9.39;45.04
18361;SHT31;9308;48.550;9.108;2023-03-01T14:42:12;9.17;44.48
18361;SHT31;9308;48.550;9.108;2023-03-01T14:44:41;9.42;44.43
18361;SHT31;9308;48.550;9.108;2023-03-01T14:47:12;9.63;44.08
18361;SHT31;9308;48.550;9.108;2023-03-01T14:49:40;9.46;44.56
18361;SHT31;9308;48.550;9.108;2023-03-01T14:52:18;9.32;44.64
18361;SHT31;9308;48.550;9.108;2023-03-01T14:54:48;9.35;44.29
18361;SHT31;9308;48.550;9.108;2023-03-01T14:57:17;9.39;44.36
18361;SHT31;9308;48.550;9.108;2023-03-01T14:59:44;9.13;44.76
18361;SHT31;9308;48.550;9.108;2023-03-01T15:02:14;9.17;45.28
18361;SHT31;9308;48.550;9.108;2023-03-01T15:04:44;9.25;45.12
18361;SHT31;9308;48.550;9.108;2023-03-01T15:07:13;9.48;44.88
18361;SHT31;9308;48.550;9.108;2023-03-01T15:09:39;9.32;44.91
18361;SHT31;9308;48.550;9.108;2023-03-01T15:14:53;8.72;46.09
18361;SHT31;9308;48.550;9.108;2023-03-01T15:19:56;9.20;45.66
18361;SHT31;9308;48.550;9.108;2023-03-01T15:22:23;8.90;45.89
18361;SHT31;9308;48.550;9.108;2023-03-01T15:24:50;9.03;46.12
18361;SHT31;9308;48.550;9.108;2023-03-01T15:27:18;9.08;45.77
18361;SHT31;9308;48.550;9.108;2023-03-01T15:30:52;8.72;46.88
18361;SHT31;9308;48.550;9.108;2023-03-01T15:35:51;8.56;47.10
18361;SHT31;9308;48.550;9.108;2023-03-01T15:38:53;8.16;48.16
18361;SHT31;9308;48.550;9.108;2023-03-01T15:41:37;8.34;47.59
18361;SHT31;9308;48.550;9.108;2023-03-01T15:44:32;8.31;47.44
18361;SHT31;9308;48.550;9.108;2023-03-01T15:46:58;8.29;47.97
18361;SHT31;9308;48.550;9.108;2023-03-01T15:49:36;8.18;47.57
18361;SHT31;9308;48.550;9.108;2023-03-01T15:52:03;7.97;48.13
18361;SHT31;9308;48.550;9.108;2023-03-01T15:54:29;7.78;49.17
18361;SHT31;9308;48.550;9.108;2023-03-01T15:56:55;7.86;48.24
18361;SHT31;9308;48.550;9.108;2023-03-01T15:59:21;8.04;48.27
18361;SHT31;9308;48.550;9.108;2023-03-01T16:01:47;7.75;48.75
18361;SHT31;9308;48.550;9.108;2023-03-01T16:04:15;7.82;48.85
18361;SHT31;9308;48.550;9.108;2023-03-01T16:06:53;7.63;49.32
18361;SHT31;9308;48.550;9.108;2023-03-01T16:09:22;7.70;49.18
18361;SHT31;9308;48.550;9.108;2023-03-01T16:11:49;7.51;49.57
18361;SHT31;9308;48.550;9.108;2023-03-01T16:14:14;7.66;49.41
18361;SHT31;9308;48.550;9.108;2023-03-01T16:16:42;7.51;49.25
18361;SHT31;9308;48.550;9.108;2023-03-01T16:19:07;7.32;50.29
18361;SHT31;9308;48.550;9.108;2023-03-01T16:21:33;7.30;50.09
18361;SHT31;9308;48.550;9.108;2023-03-01T16:23:58;7.24;50.12
18361;SHT31;9308;48.550;9.108;2023-03-01T16:26:25;7.38;49.66
18361;SHT31;9308;48.550;9.108;2023-03-01T16:28:54;7.69;49.40
18361;SHT31;9308;48.550;9.108;2023-03-01T16:31:20;7.36;49.68
18361;SHT31;9308;48.550;9.108;2023-03-01T16:33:45;7.34;49.84
18361;SHT31;9308;48.550;9.108;2023-03-01T16:36:19;7.41;49.86
18361;SHT31;9308;48.550;9.108;2023-03-01T16:38:45;7.20;50.31
18361;SHT31;9308;48.550;9.108;2023-03-01T16:41:14;7.10;50.52
18361;SHT31;9308;48.550;9.108;2023-03-01T16:43:40;7.00;51.01
18361;SHT31;9308;48.550;9.108;2023-03-01T16:46:18;6.94;51.50
18361;SHT31;9308;48.550;9.108;2023-03-01T16:48:45;7.08;51.01
18361;SHT31;9308;48.550;9.108;2023-03-01T16:51:11;7.04;50.53
18361;SHT31;9308;48.550;9.108;2023-03-01T16:53:36;7.00;50.56
18361;SHT31;9308;48.550;9.108;2023-03-01T16:56:05;6.96;50.90
18361;SHT31;9308;48.550;9.108;2023-03-01T16:58:31;6.85;50.92
18361;SHT31;9308;48.550;9.108;2023-03-01T17:01:03;6.76;51.21
18361;SHT31;9308;48.550;9.108;2023-03-01T17:03:29;6.65;51.51
18361;SHT31;9308;48.550;9.108;2023-03-01T17:05:55;6.46;51.77
18361;SHT31;9308;48.550;9.108;2023-03-01T17:08:20;6.35;52.16
18361;SHT31;9308;48.550;9.108;2023-03-01T17:10:46;6.18;52.66
18361;SHT31;9308;48.550;9.108;2023-03-01T17:13:11;6.04;52.92
18361;SHT31;9308;48.550;9.108;2023-03-01T17:15:40;6.29;52.54
18361;SHT31;9308;48.550;9.108;2023-03-01T17:18:07;6.22;52.56
18361;SHT31;9308;48.550;9.108;2023-03-01T17:20:33;6.42;52.27
18361;SHT31;9308;48.550;9.108;2023-03-01T17:22:59;6.49;52.02
18361;SHT31;9308;48.550;9.108;2023-03-01T17:25:24;6.06;52.92
18361;SHT31;9308;48.550;9.108;2023-03-01T17:27:50;5.99;53.02
18361;SHT31;9308;48.550;9.108;2023-03-01T17:30:16;6.21;52.90
18361;SHT31;9308;48.550;9.108;2023-03-01T17:32:41;6.27;52.32
18361;SHT31;9308;48.550;9.108;2023-03-01T17:35:07;6.01;53.20
18361;SHT31;9308;48.550;9.108;2023-03-01T17:37:33;5.62;54.20
18361;SHT31;9308;48.550;9.108;2023-03-01T17:39:58;5.65;54.01
18361;SHT31;9308;48.550;9.108;2023-03-01T17:42:24;5.75;53.55
18361;SHT31;9308;48.550;9.108;2023-03-01T17:44:49;5.78;53.15
18361;SHT31;9308;48.550;9.108;2023-03-01T17:47:15;5.62;53.64
18361;SHT31;9308;48.550;9.108;2023-03-01T17:49:41;5.78;53.41
18361;SHT31;9308;48.550;9.108;2023-03-01T17:52:06;5.65;53.82
18361;SHT31;9308;48.550;9.108;2023-03-01T17:54:32;5.51;53.89
18361;SHT31;9308;48.550;9.108;2023-03-01T17:56:58;5.51;54.02
18361;SHT31;9308;48.550;9.108;2023-03-01T17:59:24;5.66;53.65